Time;durP1;ratioP1;P1;durP2;ratioP2;P2;SDS_P1;SDS_P2;PMS_P1;PMS_P2;Temp;Humidity;BMP_temperature;BMP_pressure;BME280_temperature;BME280_humidity;BME280_pressure;Samples;Min_cycle;Max_cycle;Signal;HPM_P1;HPM_P2
2023/11/07 00:00:47;;;;;;;1.73;0.80;;;10.50;99.90;;;;;;5103076;28;20242;-65
2023/11/07 00:03:14;;;;;;;2.10;1.00;;;10.50;99.90;;;;;;5086296;28;20976;-66
2023/11/07 00:05:41;;;;;;;3.63;0.90;;;10.50;99.90;;;;;;5085909;28;21031;-66
2023/11/07 00:08:07;;;;;;;4.67;0.90;;;10.40;99.90;;;;;;5086079;28;20300;-66
2023/11/07 00:10:37;;;;;;;2.40;1.13;;;10.40;99.90;;;;;;5092357;28;20264;-66
2023/11/07 00:13:05;;;;;;;3.40;0.70;;;10.40;99.90;;;;;;5097834;28;20559;-65
2023/11/07 00:15:32;;;;;;;1.67;1.00;;;10.40;99.90;;;;;;5085227;28;20230;-65
2023/11/07 00:17:59;;;;;;;3.90;0.90;;;10.40;99.90;;;;;;5086463;27;20214;-65
2023/11/07 00:20:26;;;;;;;2.30;0.80;;;10.40;99.90;;;;;;5105692;28;20216;-65
2023/11/07 00:22:53;;;;;;;0.93;0.73;;;10.40;99.90;;;;;;5105483;28;20203;-66
2023/11/07 00:25:20;;;;;;;1.00;0.80;;;10.30;99.90;;;;;;5110301;27;20292;-66
2023/11/07 00:27:46;;;;;;;3.13;1.17;;;10.20;99.90;;;;;;5105167;28;20994;-66
2023/11/07 00:30:15;;;;;;;0.97;0.70;;;10.20;99.90;;;;;;5105892;28;20206;-65
2023/11/07 00:32:42;;;;;;;1.43;1.00;;;10.20;99.90;;;;;;5092767;28;20226;-65
2023/11/07 00:35:10;;;;;;;0.90;0.80;;;10.20;99.90;;;;;;5085661;28;20280;-66
2023/11/07 00:37:36;;;;;;;1.00;0.60;;;10.10;99.90;;;;;;5105569;28;20213;-66
2023/11/07 00:40:06;;;;;;;3.13;1.10;;;10.10;99.90;;;;;;5105812;28;20424;-66
2023/11/07 00:42:34;;;;;;;0.97;0.70;;;10.00;99.90;;;;;;5106051;28;20316;-65
2023/11/07 00:45:01;;;;;;;1.13;0.77;;;10.00;99.90;;;;;;5105720;28;20205;-65
2023/11/07 00:47:30;;;;;;;2.07;0.70;;;10.00;99.90;;;;;;5095711;28;20195;-65
2023/11/07 00:49:56;;;;;;;2.73;0.80;;;10.00;99.90;;;;;;5102005;28;20229;-65
2023/11/07 00:52:23;;;;;;;1.30;0.60;;;9.90;99.90;;;;;;5085111;28;20567;-66
2023/11/07 00:54:50;;;;;;;0.93;0.70;;;9.90;99.90;;;;;;5084683;28;20756;-65
2023/11/07 00:57:17;;;;;;;2.60;0.80;;;9.90;99.90;;;;;;5086257;28;20208;-66
2023/11/07 00:59:44;;;;;;;1.57;0.87;;;9.80;99.90;;;;;;5084756;28;20248;-65
2023/11/07 01:02:11;;;;;;;1.83;0.83;;;9.80;99.90;;;;;;5084653;28;20319;-66
2023/11/07 01:04:39;;;;;;;1.83;0.53;;;9.70;99.90;;;;;;5084443;28;20695;-65
2023/11/07 01:07:06;;;;;;;0.83;0.67;;;9.70;99.90;;;;;;5098294;28;20569;-66
2023/11/07 01:09:33;;;;;;;1.10;1.00;;;9.70;99.90;;;;;;5104604;28;20317;-65
2023/11/07 01:12:00;;;;;;;0.80;0.70;;;9.70;99.90;;;;;;5104687;28;20228;-65
2023/11/07 01:14:27;;;;;;;2.07;0.70;;;9.70;99.90;;;;;;5104406;28;20234;-65
2023/11/07 01:16:54;;;;;;;1.47;0.70;;;9.60;99.90;;;;;;5104977;28;20201;-65
2023/11/07 01:19:22;;;;;;;2.13;1.00;;;9.60;99.90;;;;;;5105254;28;20300;-66
2023/11/07 01:21:50;;;;;;;3.37;0.70;;;9.60;99.90;;;;;;5104857;28;20205;-65
2023/11/07 01:24:17;;;;;;;1.47;0.70;;;9.60;99.90;;;;;;5105180;28;20270;-65
2023/11/07 01:26:44;;;;;;;1.63;0.73;;;9.50;99.90;;;;;;5104570;28;20304;-66
2023/11/07 01:29:11;;;;;;;1.00;0.90;;;9.50;99.90;;;;;;5104315;28;20224;-65
2023/11/07 01:31:37;;;;;;;3.00;0.70;;;9.50;99.90;;;;;;5104848;28;20205;-66
2023/11/07 01:34:05;;;;;;;0.87;0.87;;;9.50;99.90;;;;;;5104904;28;20206;-66
2023/11/07 01:36:32;;;;;;;1.83;0.77;;;9.50;99.90;;;;;;5105024;28;20225;-66
2023/11/07 01:39:00;;;;;;;3.17;0.83;;;9.40;99.90;;;;;;5104898;28;20229;-66
2023/11/07 01:41:27;;;;;;;3.57;1.20;;;9.40;99.90;;;;;;5104989;28;20266;-66
2023/11/07 01:43:53;;;;;;;1.90;0.83;;;9.50;99.90;;;;;;5105072;28;20305;-66
2023/11/07 01:46:21;;;;;;;1.20;0.80;;;9.40;99.90;;;;;;5104254;28;20660;-65
2023/11/07 01:48:48;;;;;;;1.00;0.90;;;9.40;99.90;;;;;;5104816;28;20944;-66
2023/11/07 01:51:15;;;;;;;0.60;0.60;;;9.40;99.90;;;;;;5108729;28;20209;-66
2023/11/07 01:53:42;;;;;;;2.47;0.83;;;9.50;99.90;;;;;;5108665;28;20202;-66
2023/11/07 01:56:11;;;;;;;1.60;0.80;;;9.40;99.90;;;;;;5108858;27;20317;-66
2023/11/07 01:58:37;;;;;;;1.30;0.60;;;9.50;99.90;;;;;;5108765;28;20317;-66
2023/11/07 02:01:05;;;;;;;1.97;0.90;;;9.50;99.90;;;;;;5108034;28;20949;-66
2023/11/07 02:03:33;;;;;;;1.07;0.80;;;9.40;99.90;;;;;;5108604;28;20297;-65
2023/11/07 02:06:00;;;;;;;1.20;0.87;;;9.40;99.90;;;;;;5096383;28;20206;-66
2023/11/07 02:08:27;;;;;;;2.40;0.77;;;9.40;99.90;;;;;;5088054;28;20215;-66
2023/11/07 02:10:54;;;;;;;0.70;0.60;;;9.40;99.90;;;;;;5107597;28;20252;-65
2023/11/07 02:13:22;;;;;;;1.40;0.90;;;9.40;99.90;;;;;;5108794;27;20631;-66
2023/11/07 02:15:49;;;;;;;2.13;1.30;;;9.40;99.90;;;;;;5108079;28;20768;-66
2023/11/07 02:18:16;;;;;;;1.07;0.90;;;9.40;99.90;;;;;;5108807;28;20213;-65
2023/11/07 02:20:45;;;;;;;3.67;0.80;;;9.40;99.90;;;;;;5108265;28;20210;-65
2023/11/07 02:23:25;;;;;;;2.10;0.90;;;9.30;99.90;;;;;;5107852;28;20216;-66
2023/11/07 02:25:52;;;;;;;1.10;0.73;;;9.30;99.90;;;;;;5103527;27;20281;-65
2023/11/07 02:28:19;;;;;;;1.57;0.83;;;9.40;99.90;;;;;;5087672;28;20301;-65
2023/11/07 02:30:47;;;;;;;2.30;0.80;;;9.40;99.90;;;;;;5087156;28;20215;-66
2023/11/07 02:33:14;;;;;;;2.63;0.77;;;9.40;99.90;;;;;;5087641;28;20217;-66
2023/11/07 02:35:41;;;;;;;1.07;0.50;;;9.40;99.90;;;;;;5092147;28;20214;-65
2023/11/07 02:38:08;;;;;;;0.83;0.70;;;9.40;99.90;;;;;;5107655;28;20209;-66
2023/11/07 02:40:36;;;;;;;3.00;0.93;;;9.40;99.90;;;;;;5107384;28;20646;-66
2023/11/07 02:43:04;;;;;;;0.50;0.50;;;9.40;99.90;;;;;;5107036;28;20571;-66
2023/11/07 02:45:31;;;;;;;1.97;0.60;;;9.40;99.90;;;;;;5107481;28;20747;-66
2023/11/07 02:47:58;;;;;;;1.20;0.90;;;9.30;99.90;;;;;;5108393;27;20210;-66
2023/11/07 02:50:25;;;;;;;2.93;0.90;;;9.30;99.90;;;;;;5108190;28;20242;-65
2023/11/07 02:52:51;;;;;;;1.10;0.80;;;9.30;99.90;;;;;;5108043;28;20292;-66
2023/11/07 02:55:18;;;;;;;1.27;0.50;;;9.30;99.90;;;;;;5087632;28;20202;-66
2023/11/07 02:57:47;;;;;;;1.53;0.70;;;9.30;99.90;;;;;;5087407;28;20286;-65
2023/11/07 03:00:14;;;;;;;1.30;0.80;;;9.20;99.90;;;;;;5086654;28;20239;-65
2023/11/07 03:02:41;;;;;;;1.43;0.87;;;9.20;99.90;;;;;;5087159;27;20632;-66
2023/11/07 03:05:09;;;;;;;4.30;0.90;;;9.20;99.90;;;;;;5107354;27;20205;-66
2023/11/07 03:07:36;;;;;;;2.10;0.90;;;9.20;99.90;;;;;;5107323;28;20209;-66
2023/11/07 03:10:05;;;;;;;3.43;0.80;;;9.20;99.90;;;;;;5106430;28;20221;-65
2023/11/07 03:12:32;;;;;;;2.50;1.10;;;9.20;99.90;;;;;;5106815;28;20544;-65
2023/11/07 03:15:00;;;;;;;1.33;0.53;;;9.10;99.90;;;;;;5107298;28;20226;-66
2023/11/07 03:17:27;;;;;;;1.37;0.87;;;9.10;99.90;;;;;;5099542;28;20684;-65
2023/11/07 03:19:54;;;;;;;0.73;0.50;;;9.10;99.90;;;;;;5095294;28;20301;-65
2023/11/07 03:22:21;;;;;;;1.40;0.50;;;9.10;99.90;;;;;;5098969;28;20857;-65
2023/11/07 03:24:49;;;;;;;2.60;0.70;;;9.10;99.90;;;;;;5089812;28;20245;-65
2023/11/07 03:27:16;;;;;;;3.50;1.47;;;9.10;99.90;;;;;;5100082;28;20203;-65
2023/11/07 03:29:43;;;;;;;2.47;0.87;;;9.10;99.90;;;;;;5086048;28;20321;-65
2023/11/07 03:32:11;;;;;;;2.23;0.90;;;9.10;99.90;;;;;;5085858;28;20213;-65
2023/11/07 03:34:38;;;;;;;0.70;0.70;;;9.10;99.90;;;;;;5101836;28;20202;-65
2023/11/07 03:37:05;;;;;;;0.77;0.53;;;9.10;99.90;;;;;;5088294;28;20211;-65
2023/11/07 03:39:32;;;;;;;1.50;0.80;;;9.10;99.90;;;;;;5095518;28;20301;-65
2023/11/07 03:42:00;;;;;;;0.90;0.60;;;9.20;99.90;;;;;;5105021;28;20245;-65
2023/11/07 03:44:27;;;;;;;1.60;0.73;;;9.10;99.90;;;;;;5105283;28;20220;-65
2023/11/07 03:46:54;;;;;;;1.03;0.93;;;9.10;99.90;;;;;;5104692;27;20644;-65
2023/11/07 03:49:22;;;;;;;0.50;0.50;;;9.20;99.90;;;;;;5104862;28;20233;-65
2023/11/07 03:51:49;;;;;;;2.33;0.67;;;9.10;99.90;;;;;;5104547;28;20799;-65
2023/11/07 03:54:17;;;;;;;1.03;0.70;;;9.10;99.90;;;;;;5088986;28;20295;-65
2023/11/07 03:56:47;;;;;;;1.10;0.90;;;9.10;99.90;;;;;;5084437;28;20230;-65
2023/11/07 03:59:14;;;;;;;1.97;0.60;;;9.20;99.90;;;;;;5085031;28;20239;-65
2023/11/07 04:01:41;;;;;;;1.50;0.50;;;9.20;99.90;;;;;;5086057;28;20203;-65
2023/11/07 04:04:08;;;;;;;2.13;0.80;;;9.20;99.90;;;;;;5085949;28;20484;-65
2023/11/07 04:06:36;;;;;;;1.20;0.57;;;9.20;99.90;;;;;;5097911;28;20807;-65
2023/11/07 04:09:04;;;;;;;1.53;1.00;;;9.20;99.90;;;;;;5105322;28;20297;-65
2023/11/07 04:11:32;;;;;;;1.00;0.70;;;9.20;99.90;;;;;;5106286;28;20262;-65
2023/11/07 04:14:00;;;;;;;0.93;0.70;;;9.20;99.90;;;;;;5105344;28;20274;-65
2023/11/07 04:16:27;;;;;;;2.00;1.37;;;9.10;99.90;;;;;;5105647;28;20214;-65
2023/11/07 04:18:54;;;;;;;0.93;0.60;;;9.10;99.90;;;;;;5105669;28;20209;-65
2023/11/07 04:21:21;;;;;;;1.10;0.93;;;9.10;99.90;;;;;;5105675;28;20677;-65
2023/11/07 04:23:50;;;;;;;1.00;0.90;;;9.10;99.90;;;;;;5105523;28;20304;-65
2023/11/07 04:26:17;;;;;;;1.70;0.80;;;9.10;99.90;;;;;;5105896;27;20625;-65
2023/11/07 04:28:44;;;;;;;4.33;1.03;;;9.20;99.90;;;;;;5105348;28;20208;-65
2023/11/07 04:31:11;;;;;;;3.63;0.97;;;9.10;99.90;;;;;;5105232;28;20790;-65
2023/11/07 04:33:38;;;;;;;1.27;1.10;;;9.10;99.90;;;;;;5105607;28;20656;-65
2023/11/07 04:36:06;;;;;;;2.30;0.93;;;9.10;99.90;;;;;;5105374;28;20301;-65
2023/11/07 04:38:34;;;;;;;3.80;1.00;;;9.10;99.90;;;;;;5105506;28;20556;-65
2023/11/07 04:41:02;;;;;;;1.43;0.93;;;9.10;99.90;;;;;;5105474;28;20202;-65
2023/11/07 04:43:35;;;;;;;0.67;0.50;;;9.10;99.90;;;;;;5105718;28;20584;-65
2023/11/07 04:46:02;;;;;;;2.43;0.87;;;9.10;99.90;;;;;;5105429;28;20225;-65
2023/11/07 04:48:31;;;;;;;1.40;0.83;;;9.10;99.90;;;;;;5105669;28;20742;-65
2023/11/07 04:50:59;;;;;;;0.80;0.80;;;9.10;99.90;;;;;;5105436;28;20371;-65
2023/11/07 04:53:27;;;;;;;2.77;0.90;;;9.00;99.90;;;;;;5105643;28;20300;-65
2023/11/07 04:55:54;;;;;;;1.40;0.77;;;9.10;99.90;;;;;;5105375;28;20747;-65
2023/11/07 04:58:23;;;;;;;3.80;1.40;;;9.10;99.90;;;;;;5098441;28;20585;-65
2023/11/07 05:00:50;;;;;;;0.83;0.67;;;9.10;99.90;;;;;;5104435;28;20325;-65
2023/11/07 05:03:17;;;;;;;1.00;0.77;;;9.10;99.90;;;;;;5104698;28;20214;-65
2023/11/07 05:05:44;;;;;;;1.03;0.57;;;9.10;99.90;;;;;;5104324;28;20220;-65
2023/11/07 05:08:11;;;;;;;1.30;0.70;;;9.10;99.90;;;;;;5104918;27;20202;-65
2023/11/07 05:10:37;;;;;;;2.43;0.70;;;9.10;99.90;;;;;;5104725;28;20265;-65
2023/11/07 05:13:06;;;;;;;0.73;0.43;;;9.10;99.90;;;;;;5104879;28;20392;-65
2023/11/07 05:15:34;;;;;;;0.73;0.57;;;9.00;99.90;;;;;;5100945;28;20209;-65
2023/11/07 05:18:01;;;;;;;1.60;1.00;;;9.10;99.90;;;;;;5084702;28;20202;-66
2023/11/07 05:20:28;;;;;;;2.53;1.60;;;9.10;99.90;;;;;;5084711;28;20206;-65
2023/11/07 05:22:55;;;;;;;1.37;0.57;;;9.00;99.90;;;;;;5084709;28;20764;-65
2023/11/07 05:25:22;;;;;;;1.57;1.27;;;9.00;99.90;;;;;;5086980;28;20302;-65
2023/11/07 05:27:49;;;;;;;1.40;0.87;;;9.00;99.90;;;;;;5088668;28;20302;-65
2023/11/07 05:30:16;;;;;;;2.63;1.10;;;9.10;99.90;;;;;;5088596;28;20279;-65
2023/11/07 05:32:47;;;;;;;2.30;2.10;;;9.10;99.90;;;;;;5102360;28;20297;-65
2023/11/07 05:35:14;;;;;;;1.00;0.70;;;9.00;99.90;;;;;;5108997;28;20198;-65
2023/11/07 05:37:41;;;;;;;0.60;0.60;;;9.10;99.90;;;;;;5108978;28;20626;-65
2023/11/07 05:40:13;;;;;;;1.30;1.20;;;9.10;99.90;;;;;;5108483;28;20213;-65
2023/11/07 05:42:40;;;;;;;0.80;0.80;;;9.10;99.90;;;;;;5108423;28;20282;-65
2023/11/07 05:45:08;;;;;;;2.30;2.10;;;9.10;99.90;;;;;;5108420;28;20205;-65
2023/11/07 05:47:36;;;;;;;3.07;1.17;;;9.00;99.90;;;;;;5108180;28;20214;-66
2023/11/07 05:50:05;;;;;;;2.93;0.97;;;9.00;99.90;;;;;;5108246;28;20858;-65
2023/11/07 05:52:32;;;;;;;3.93;0.67;;;9.00;99.90;;;;;;5108448;28;20292;-65
2023/11/07 05:55:00;;;;;;;1.57;0.90;;;9.00;99.90;;;;;;5108975;28;20209;-65
2023/11/07 05:57:27;;;;;;;1.50;0.70;;;9.00;99.90;;;;;;5105573;28;20673;-65
2023/11/07 05:59:54;;;;;;;0.70;0.67;;;9.00;99.90;;;;;;5094385;28;20246;-65
2023/11/07 06:02:20;;;;;;;1.03;0.60;;;8.90;99.90;;;;;;5107893;28;20245;-65
2023/11/07 06:04:47;;;;;;;3.07;0.87;;;9.00;99.90;;;;;;5108770;28;20293;-65
2023/11/07 06:07:15;;;;;;;1.63;1.07;;;9.00;99.90;;;;;;5089870;28;20210;-65
2023/11/07 06:09:43;;;;;;;1.17;0.70;;;9.00;99.90;;;;;;5087640;28;20233;-66
2023/11/07 06:12:11;;;;;;;2.07;0.70;;;8.90;99.90;;;;;;5087588;28;20665;-65
2023/11/07 06:14:38;;;;;;;1.10;0.70;;;9.00;99.90;;;;;;5087760;28;20231;-65
2023/11/07 06:17:05;;;;;;;1.07;0.60;;;9.00;99.90;;;;;;5087632;28;20281;-65
2023/11/07 06:19:32;;;;;;;1.90;1.00;;;8.90;99.90;;;;;;5087735;28;20408;-65
2023/11/07 06:21:59;;;;;;;1.37;1.00;;;9.00;99.90;;;;;;5087682;28;20611;-65
2023/11/07 06:24:27;;;;;;;2.87;1.00;;;8.90;99.90;;;;;;5087781;28;20293;-65
2023/11/07 06:26:54;;;;;;;1.87;0.90;;;9.00;99.90;;;;;;5087695;28;20213;-65
2023/11/07 06:29:21;;;;;;;1.77;0.83;;;8.90;99.90;;;;;;5107358;28;20296;-65
2023/11/07 06:31:48;;;;;;;1.77;0.93;;;8.90;99.90;;;;;;5107771;28;20248;-65
2023/11/07 06:34:15;;;;;;;1.80;0.83;;;9.00;99.90;;;;;;5108164;28;20668;-65
2023/11/07 06:36:42;;;;;;;3.20;0.70;;;9.00;99.90;;;;;;5107435;28;20677;-65
2023/11/07 06:39:10;;;;;;;2.37;0.87;;;9.10;99.90;;;;;;5107489;28;20205;-65
2023/11/07 06:41:39;;;;;;;2.17;0.90;;;8.90;99.90;;;;;;5107322;28;20811;-65
2023/11/07 06:44:08;;;;;;;0.80;0.80;;;9.00;99.90;;;;;;5108054;28;20213;-65
2023/11/07 06:46:35;;;;;;;1.53;0.80;;;9.00;99.90;;;;;;5107213;28;20660;-65
2023/11/07 06:49:04;;;;;;;4.10;1.10;;;9.00;99.90;;;;;;5107547;28;20210;-65
2023/11/07 06:51:31;;;;;;;1.70;0.93;;;9.00;99.90;;;;;;5107320;28;20732;-65
2023/11/07 06:54:00;;;;;;;1.00;0.80;;;9.10;99.90;;;;;;5095416;28;20290;-65
2023/11/07 06:56:27;;;;;;;1.00;0.80;;;9.00;99.90;;;;;;5087039;28;20215;-65
2023/11/07 06:58:55;;;;;;;1.80;0.87;;;9.00;99.90;;;;;;5086900;28;20682;-65
2023/11/07 07:01:25;;;;;;;3.43;0.93;;;9.00;99.90;;;;;;5086794;28;20641;-65
2023/11/07 07:03:52;;;;;;;1.90;0.90;;;9.00;99.90;;;;;;5087304;28;20206;-65
2023/11/07 07:06:21;;;;;;;1.10;1.00;;;9.00;99.90;;;;;;5086945;28;20211;-65
2023/11/07 07:08:47;;;;;;;1.10;1.00;;;9.00;99.90;;;;;;5097018;28;20214;-65
2023/11/07 07:11:14;;;;;;;1.03;0.93;;;9.10;99.90;;;;;;5106887;28;20236;-65
2023/11/07 07:13:41;;;;;;;1.20;1.10;;;9.10;99.90;;;;;;5107024;28;20317;-65
2023/11/07 07:16:13;;;;;;;1.03;0.70;;;9.20;99.90;;;;;;5107032;28;20248;-65
2023/11/07 07:18:40;;;;;;;1.10;0.83;;;9.20;99.90;;;;;;5107319;28;20262;-65
2023/11/07 07:21:08;;;;;;;1.03;0.93;;;9.30;99.90;;;;;;5107446;28;20583;-65
2023/11/07 07:23:36;;;;;;;1.53;1.00;;;9.30;99.90;;;;;;5106357;28;20206;-65
2023/11/07 07:26:08;;;;;;;2.20;1.07;;;9.40;99.90;;;;;;5107463;28;20228;-65
2023/11/07 07:28:37;;;;;;;2.13;0.80;;;9.50;99.90;;;;;;5107156;28;20202;-65
2023/11/07 07:31:06;;;;;;;2.03;1.40;;;9.50;99.90;;;;;;5107095;28;20234;-65
2023/11/07 07:33:35;;;;;;;0.87;0.87;;;9.60;99.90;;;;;;5106852;28;20668;-65
2023/11/07 07:36:04;;;;;;;1.90;0.70;;;9.60;99.90;;;;;;5106982;28;20438;-65
2023/11/07 07:38:31;;;;;;;2.43;0.87;;;9.70;99.90;;;;;;5106245;28;20267;-65
2023/11/07 07:40:58;;;;;;;0.83;0.83;;;9.70;99.90;;;;;;5106954;28;20296;-65
2023/11/07 07:43:26;;;;;;;1.00;0.90;;;9.80;99.90;;;;;;5106775;27;20259;-65
2023/11/07 07:45:55;;;;;;;0.90;0.80;;;9.80;99.90;;;;;;5106243;27;20664;-65
2023/11/07 07:48:22;;;;;;;2.07;0.90;;;9.90;99.90;;;;;;5105780;28;20817;-65
2023/11/07 07:50:51;;;;;;;0.80;0.80;;;10.00;99.90;;;;;;5089483;28;20231;-65
2023/11/07 07:53:20;;;;;;;2.00;1.03;;;10.10;99.90;;;;;;5086307;28;20210;-65
2023/11/07 07:55:49;;;;;;;1.03;0.80;;;10.10;99.90;;;;;;5086436;28;20210;-65
2023/11/07 07:58:18;;;;;;;1.90;0.80;;;10.20;99.90;;;;;;5086571;28;20287;-65
2023/11/07 08:00:49;;;;;;;3.07;1.17;;;10.30;99.90;;;;;;5085812;28;20266;-65
2023/11/07 08:03:16;;;;;;;1.93;0.70;;;10.30;99.90;;;;;;5086381;28;20195;-65
2023/11/07 08:05:44;;;;;;;2.60;0.93;;;10.30;99.90;;;;;;5102236;28;20206;-65
2023/11/07 08:08:14;;;;;;;2.20;0.90;;;10.40;99.90;;;;;;5106460;28;20306;-65
2023/11/07 08:10:47;;;;;;;2.63;0.67;;;10.50;99.90;;;;;;5106266;28;20312;-65
2023/11/07 08:13:16;;;;;;;2.20;0.80;;;10.50;99.90;;;;;;5105844;28;20726;-65
2023/11/07 08:15:43;;;;;;;0.80;0.80;;;10.60;99.90;;;;;;5105887;28;20298;-65
2023/11/07 08:18:10;;;;;;;1.17;1.00;;;10.70;99.90;;;;;;5105824;28;20206;-65
2023/11/07 08:20:38;;;;;;;2.57;0.90;;;10.80;99.90;;;;;;5104247;28;20306;-65
2023/11/07 08:23:05;;;;;;;2.30;0.97;;;10.80;99.90;;;;;;5106338;28;20206;-65
2023/11/07 08:25:34;;;;;;;1.23;0.60;;;10.90;99.90;;;;;;5105832;28;20309;-65
2023/11/07 08:28:01;;;;;;;0.67;0.67;;;11.00;99.90;;;;;;5106562;28;20298;-65
2023/11/07 08:30:28;;;;;;;1.97;1.00;;;11.00;99.90;;;;;;5106169;28;20212;-65
2023/11/07 08:32:54;;;;;;;2.33;1.00;;;11.00;99.90;;;;;;5106261;28;20206;-65
2023/11/07 08:35:22;;;;;;;1.20;0.73;;;11.10;99.90;;;;;;5106054;28;20304;-65
2023/11/07 08:37:51;;;;;;;2.03;1.17;;;11.10;99.90;;;;;;5105824;28;20251;-66
2023/11/07 08:40:21;;;;;;;0.63;0.63;;;11.20;99.90;;;;;;5105660;28;20206;-65
2023/11/07 08:42:52;;;;;;;1.53;0.63;;;11.30;99.90;;;;;;5105672;27;20206;-65
2023/11/07 08:45:20;;;;;;;1.27;0.70;;;11.40;99.90;;;;;;5103248;28;20194;-66
2023/11/07 08:47:49;;;;;;;0.73;0.60;;;11.60;99.90;;;;;;5084697;28;20289;-65
2023/11/07 08:50:18;;;;;;;1.90;0.77;;;11.60;99.90;;;;;;5085027;28;20253;-65
2023/11/07 08:52:47;;;;;;;1.00;0.87;;;11.70;99.90;;;;;;5084988;28;20308;-66
2023/11/07 08:55:16;;;;;;;1.33;0.87;;;11.70;99.90;;;;;;5084817;28;20665;-65
2023/11/07 08:57:44;;;;;;;2.00;0.70;;;11.70;99.90;;;;;;5084718;28;20215;-66
2023/11/07 09:00:21;;;;;;;3.17;0.70;;;11.60;99.90;;;;;;5084781;28;20227;-65
2023/11/07 09:02:48;;;;;;;0.73;0.50;;;11.50;99.90;;;;;;5105470;28;20193;-66
2023/11/07 09:05:16;;;;;;;2.00;0.77;;;11.40;99.90;;;;;;5105901;28;20633;-65
2023/11/07 09:07:44;;;;;;;1.30;0.50;;;11.40;99.90;;;;;;5105633;28;20214;-65
2023/11/07 09:10:12;;;;;;;1.50;0.50;;;11.30;99.90;;;;;;5105716;28;20210;-65
2023/11/07 09:12:40;;;;;;;1.63;0.90;;;11.30;99.90;;;;;;5105182;28;20249;-65
2023/11/07 09:15:07;;;;;;;2.30;0.73;;;11.30;99.90;;;;;;5105876;28;20206;-65
2023/11/07 09:17:36;;;;;;;2.67;0.73;;;11.30;99.90;;;;;;5103924;28;20310;-65
2023/11/07 09:20:04;;;;;;;1.33;0.80;;;11.30;99.90;;;;;;5105523;28;20206;-65
2023/11/07 09:22:31;;;;;;;2.80;0.60;;;11.30;99.90;;;;;;5105131;28;20209;-65
2023/11/07 09:24:58;;;;;;;1.53;0.60;;;11.30;99.90;;;;;;5105404;28;20202;-65
2023/11/07 09:27:25;;;;;;;1.97;0.87;;;11.30;99.90;;;;;;5105430;28;20212;-65
2023/11/07 09:29:55;;;;;;;1.10;0.97;;;11.30;99.90;;;;;;5105385;28;20209;-65
2023/11/07 09:32:23;;;;;;;2.27;0.90;;;11.30;99.90;;;;;;5104961;28;20252;-65
2023/11/07 09:34:51;;;;;;;1.13;0.77;;;11.30;99.90;;;;;;5104748;28;20209;-65
2023/11/07 09:37:18;;;;;;;1.60;0.70;;;11.30;99.90;;;;;;5105121;28;20225;-65
2023/11/07 09:39:45;;;;;;;1.67;1.00;;;11.30;99.90;;;;;;5104645;28;20313;-65
2023/11/07 09:42:12;;;;;;;1.37;0.90;;;11.30;99.90;;;;;;5097121;28;20310;-65
2023/11/07 09:44:41;;;;;;;4.77;0.77;;;11.30;99.90;;;;;;5084672;28;20293;-65
2023/11/07 09:47:09;;;;;;;0.93;0.80;;;11.20;99.90;;;;;;5084337;28;20264;-65
2023/11/07 09:49:36;;;;;;;0.87;0.80;;;11.20;99.90;;;;;;5084744;28;20256;-65
2023/11/07 09:52:07;;;;;;;2.23;1.00;;;11.10;99.90;;;;;;5084771;28;20317;-65
2023/11/07 09:54:36;;;;;;;1.93;0.80;;;11.10;99.90;;;;;;5084983;28;20194;-65
2023/11/07 09:57:08;;;;;;;1.80;0.87;;;11.10;99.90;;;;;;5090858;28;20294;-65
2023/11/07 09:59:36;;;;;;;1.80;0.90;;;11.20;99.90;;;;;;5104479;28;20241;-65
2023/11/07 10:02:05;;;;;;;2.83;1.10;;;11.50;99.90;;;;;;5104546;28;20563;-65
2023/11/07 10:04:33;;;;;;;0.73;0.73;;;11.70;99.90;;;;;;5104377;28;20580;-65
2023/11/07 10:07:00;;;;;;;1.80;0.80;;;11.90;99.90;;;;;;5088792;28;20211;-65
2023/11/07 10:09:29;;;;;;;2.70;0.80;;;12.10;99.90;;;;;;5084022;28;20310;-65
2023/11/07 10:11:58;;;;;;;1.50;1.10;;;12.20;99.90;;;;;;5086729;28;20239;-65
2023/11/07 10:14:26;;;;;;;1.33;0.70;;;12.40;99.90;;;;;;5088846;28;20444;-65
2023/11/07 10:16:56;;;;;;;3.27;1.00;;;12.50;99.90;;;;;;5087831;28;20207;-65
2023/11/07 10:19:25;;;;;;;1.00;0.87;;;12.40;99.90;;;;;;5088030;28;20195;-65
2023/11/07 10:21:52;;;;;;;5.03;0.90;;;12.40;99.90;;;;;;5088011;28;20298;-65
2023/11/07 10:24:19;;;;;;;1.20;0.93;;;12.30;99.90;;;;;;5088291;28;20206;-65
2023/11/07 10:26:52;;;;;;;0.80;0.73;;;12.20;99.90;;;;;;5087757;28;20293;-65
2023/11/07 10:29:26;;;;;;;1.70;0.90;;;12.20;99.90;;;;;;5088123;28;20294;-65
2023/11/07 10:32:00;;;;;;;2.33;1.17;;;12.10;99.90;;;;;;5087520;28;20225;-65
2023/11/07 10:34:27;;;;;;;0.93;0.90;;;12.00;99.90;;;;;;5087975;28;20660;-65
2023/11/07 10:36:55;;;;;;;3.07;0.87;;;12.00;99.90;;;;;;5103496;28;20325;-65
2023/11/07 10:39:25;;;;;;;2.47;1.07;;;11.90;99.90;;;;;;5099614;28;20203;-65
2023/11/07 10:41:54;;;;;;;2.30;0.80;;;11.90;99.90;;;;;;5087789;28;20215;-65
2023/11/07 10:44:24;;;;;;;3.17;0.97;;;11.80;99.90;;;;;;5087802;28;20238;-65
2023/11/07 10:46:52;;;;;;;1.67;0.87;;;11.90;99.90;;;;;;5087363;28;20211;-65
2023/11/07 10:49:19;;;;;;;1.37;1.20;;;11.90;99.90;;;;;;5087763;28;20211;-65
2023/11/07 10:51:47;;;;;;;1.97;1.00;;;12.00;99.90;;;;;;5087290;28;20266;-65
2023/11/07 10:54:15;;;;;;;1.07;0.90;;;12.00;99.90;;;;;;5101161;28;20743;-65
2023/11/07 10:56:44;;;;;;;1.80;1.20;;;11.90;99.90;;;;;;5107708;28;20206;-65
2023/11/07 10:59:20;;;;;;;2.10;1.20;;;11.90;99.90;;;;;;5107574;28;20240;-65
2023/11/07 11:01:51;;;;;;;2.03;1.27;;;12.00;99.90;;;;;;5107413;28;20200;-65
2023/11/07 11:04:20;;;;;;;2.10;1.00;;;12.00;99.90;;;;;;5107652;28;20323;-65
2023/11/07 11:06:53;;;;;;;5.30;1.80;;;12.10;99.90;;;;;;5107606;28;20241;-65
2023/11/07 11:09:21;;;;;;;3.13;1.33;;;12.10;99.90;;;;;;5107401;28;20202;-65
2023/11/07 11:11:50;;;;;;;1.40;0.90;;;12.20;99.90;;;;;;5107353;28;20238;-65
2023/11/07 11:14:20;;;;;;;1.20;0.90;;;12.20;99.90;;;;;;5107661;28;20209;-65
2023/11/07 11:16:50;;;;;;;2.43;0.97;;;12.20;99.90;;;;;;5107092;28;20241;-65
2023/11/07 11:19:28;;;;;;;1.73;1.03;;;12.20;99.90;;;;;;5107175;28;20212;-65
2023/11/07 11:22:02;;;;;;;1.27;1.17;;;12.20;99.90;;;;;;5106670;28;20186;-65
2023/11/07 11:24:45;;;;;;;1.97;1.50;;;12.20;99.90;;;;;;5107323;28;20279;-65
2023/11/07 11:27:20;;;;;;;3.23;2.20;;;12.20;99.90;;;;;;5107038;28;20221;-65
2023/11/07 11:29:49;;;;;;;4.47;1.63;;;12.20;99.90;;;;;;5107006;28;20283;-65
2023/11/07 11:32:27;;;;;;;2.43;1.40;;;12.30;99.90;;;;;;5106777;28;20234;-65
2023/11/07 11:35:21;;;;;;;3.60;1.40;;;12.40;99.90;;;;;;5097108;28;20214;-66
2023/11/07 11:38:12;;;;;;;2.30;1.40;;;12.40;99.90;;;;;;5085920;28;20207;-66
2023/11/07 11:40:54;;;;;;;0.93;0.93;;;12.40;99.90;;;;;;5085979;28;20202;-66
2023/11/07 11:43:22;;;;;;;2.40;1.40;;;12.50;99.90;;;;;;5086281;28;20946;-66
2023/11/07 11:45:51;;;;;;;2.73;1.20;;;12.50;99.90;;;;;;5085875;28;20211;-66
2023/11/07 11:48:19;;;;;;;2.97;1.30;;;12.60;99.90;;;;;;5086504;28;20553;-66
2023/11/07 11:50:46;;;;;;;2.40;1.00;;;12.60;99.90;;;;;;5102309;28;20927;-66
2023/11/07 11:53:32;;;;;;;2.00;0.97;;;12.80;99.90;;;;;;5106934;28;20708;-66
2023/11/07 11:56:12;;;;;;;1.60;0.80;;;13.00;99.90;;;;;;5107349;28;20206;-66
2023/11/07 11:58:40;;;;;;;2.10;0.73;;;13.30;99.90;;;;;;5106705;28;20230;-66
2023/11/07 12:01:10;;;;;;;1.30;0.97;;;13.30;99.90;;;;;;5106163;28;20329;-66
2023/11/07 12:03:45;;;;;;;2.37;0.80;;;13.50;99.90;;;;;;5106483;28;20298;-66
2023/11/07 12:06:13;;;;;;;1.67;1.10;;;13.50;99.90;;;;;;5106094;28;20210;-66
2023/11/07 12:08:42;;;;;;;2.03;0.77;;;13.50;99.90;;;;;;5106234;28;20202;-66
2023/11/07 12:11:09;;;;;;;1.43;1.00;;;13.50;99.90;;;;;;5105960;28;20228;-66
2023/11/07 12:13:37;;;;;;;0.80;0.80;;;13.40;99.90;;;;;;5106031;28;20321;-66
2023/11/07 12:16:14;;;;;;;1.60;1.50;;;13.40;99.90;;;;;;5105394;28;20238;-66
2023/11/07 12:18:41;;;;;;;0.70;0.63;;;13.30;99.90;;;;;;5105452;28;20743;-66
2023/11/07 12:21:09;;;;;;;1.67;1.33;;;13.20;99.90;;;;;;5105925;28;20295;-66
2023/11/07 12:23:36;;;;;;;1.00;0.90;;;13.20;99.90;;;;;;5105657;28;20206;-66
2023/11/07 12:26:04;;;;;;;1.67;1.07;;;13.40;99.90;;;;;;5105690;28;20647;-66
2023/11/07 12:28:31;;;;;;;1.63;1.00;;;13.50;99.90;;;;;;5105467;28;20759;-66
2023/11/07 12:30:58;;;;;;;2.03;0.83;;;13.80;99.90;;;;;;5097763;28;20737;-66
2023/11/07 12:33:29;;;;;;;1.87;1.10;;;13.90;99.90;;;;;;5085280;28;20266;-66
2023/11/07 12:35:57;;;;;;;2.27;1.00;;;14.00;99.90;;;;;;5092381;28;20206;-66
2023/11/07 12:38:24;;;;;;;2.03;1.03;;;14.10;99.90;;;;;;5105510;28;20293;-66
2023/11/07 12:40:51;;;;;;;2.60;1.27;;;14.10;99.90;;;;;;5105626;28;20635;-66
2023/11/07 12:43:18;;;;;;;2.47;0.90;;;13.90;99.90;;;;;;5105376;28;20297;-66
2023/11/07 12:45:47;;;;;;;1.30;1.20;;;13.80;99.90;;;;;;5099467;28;20298;-66
2023/11/07 12:48:24;;;;;;;1.53;0.90;;;14.00;99.90;;;;;;5084833;28;20210;-66
2023/11/07 12:50:53;;;;;;;1.23;0.80;;;14.10;99.90;;;;;;5084694;28;20305;-66
2023/11/07 12:53:19;;;;;;;0.93;0.80;;;14.40;99.90;;;;;;5084926;28;20296;-66
2023/11/07 12:55:54;;;;;;;3.07;1.63;;;14.40;99.90;;;;;;5084516;28;20866;-66
2023/11/07 12:58:28;;;;;;;1.17;1.07;;;14.10;99.90;;;;;;5085200;28;20289;-66